Time;durP1;ratioP1;P1;durP2;ratioP2;P2;SDS_P1;SDS_P2;PMS_P1;PMS_P2;Temp;Humidity;BMP_temperature;BMP_pressure;BME280_temperature;BME280_humidity;BME280_pressure;Samples;Min_cycle;Max_cycle;Signal;HPM_P1;HPM_P2
2023/06/11 00:00:25;;;;;;;8.63;7.97;;;16.10;99.90;;;;;;5045383;28;20543;-81
2023/06/11 00:02:54;;;;;;;7.90;7.30;;;16.10;99.90;;;;;;5043808;28;20466;-81
2023/06/11 00:05:21;;;;;;;11.63;6.93;;;16.00;99.90;;;;;;5047738;28;20500;-81
2023/06/11 00:07:49;;;;;;;8.50;7.90;;;15.90;99.90;;;;;;5046712;28;20478;-82
2023/06/11 00:10:16;;;;;;;8.93;8.13;;;15.90;99.90;;;;;;5046028;28;20461;-82
2023/06/11 00:12:43;;;;;;;8.50;7.73;;;15.80;99.90;;;;;;5045914;28;20546;-83
2023/06/11 00:15:11;;;;;;;9.30;8.50;;;15.80;99.90;;;;;;5046276;28;21144;-82
2023/06/11 00:17:38;;;;;;;9.30;8.47;;;15.80;99.90;;;;;;5046860;28;20474;-82
2023/06/11 00:20:11;;;;;;;9.40;8.60;;;15.80;99.90;;;;;;5043414;28;20481;-82
2023/06/11 00:22:39;;;;;;;9.83;9.00;;;15.70;99.90;;;;;;5046930;28;20540;-82
2023/06/11 00:25:07;;;;;;;9.13;8.27;;;15.70;99.90;;;;;;5039490;28;20554;-83
2023/06/11 00:27:36;;;;;;;9.10;8.30;;;15.60;99.90;;;;;;5045993;28;20967;-82
2023/06/11 00:30:04;;;;;;;8.67;7.73;;;15.60;99.90;;;;;;5046556;28;20557;-83
2023/06/11 00:32:32;;;;;;;9.70;8.77;;;15.50;99.90;;;;;;5041280;28;20462;-83
2023/06/11 00:34:59;;;;;;;10.63;9.53;;;15.60;99.90;;;;;;5046516;28;20583;-86
2023/06/11 00:37:30;;;;;;;10.10;9.10;;;15.50;99.90;;;;;;5045701;28;20510;-83
2023/06/11 00:39:57;;;;;;;10.33;9.47;;;15.50;99.90;;;;;;5040853;28;20485;-83
2023/06/11 00:42:24;;;;;;;9.73;8.93;;;15.50;99.90;;;;;;5041156;28;21109;-84
2023/06/11 00:44:51;;;;;;;9.20;8.40;;;15.50;99.90;;;;;;5042206;28;20548;-83
2023/06/11 00:47:18;;;;;;;9.37;8.67;;;15.50;99.90;;;;;;5045828;28;20446;-83
2023/06/11 00:49:46;;;;;;;9.40;8.60;;;15.40;99.90;;;;;;5043889;28;20514;-82
2023/06/11 00:52:16;;;;;;;8.10;7.47;;;15.40;99.90;;;;;;5035623;28;20430;-84
2023/06/11 00:54:44;;;;;;;8.83;7.93;;;15.40;99.90;;;;;;5041828;28;21341;-83
2023/06/11 00:57:12;;;;;;;7.93;7.23;;;15.30;99.90;;;;;;5045396;28;20467;-82
2023/06/11 00:59:40;;;;;;;12.87;9.03;;;15.40;99.90;;;;;;5044074;28;20542;-83
2023/06/11 01:02:15;;;;;;;9.53;8.77;;;15.40;99.90;;;;;;5044682;28;20441;-85
2023/06/11 01:04:43;;;;;;;11.23;9.67;;;15.50;99.90;;;;;;5046798;28;20449;-82
2023/06/11 01:07:13;;;;;;;10.80;9.70;;;15.70;99.90;;;;;;5043386;28;20496;-83
2023/06/11 01:09:41;;;;;;;9.17;8.30;;;15.70;99.90;;;;;;5043285;28;20481;-84
2023/06/11 01:12:10;;;;;;;8.97;8.17;;;15.80;99.90;;;;;;5039372;28;21000;-82
2023/06/11 01:14:38;;;;;;;10.83;9.93;;;15.80;99.90;;;;;;5041375;28;20567;-83
2023/06/11 01:17:15;;;;;;;10.07;9.00;;;15.80;99.90;;;;;;5044492;28;20449;-84
2023/06/11 01:20:11;;;;;;;10.17;9.13;;;15.70;99.90;;;;;;5045306;28;20477;-83
2023/06/11 01:23:20;;;;;;;10.00;9.03;;;15.80;99.90;;;;;;5042399;28;20445;-82
2023/06/11 01:26:10;;;;;;;10.23;9.33;;;15.80;99.90;;;;;;5035484;28;20503;-83
2023/06/11 01:28:41;;;;;;;10.90;9.70;;;15.80;99.90;;;;;;5032851;28;20532;-82
2023/06/11 01:31:12;;;;;;;14.50;10.60;;;15.80;99.90;;;;;;5041901;28;20469;-81
2023/06/11 01:33:39;;;;;;;10.57;9.63;;;15.70;99.90;;;;;;5038871;28;20469;-83
2023/06/11 01:36:06;;;;;;;11.30;8.93;;;15.70;99.90;;;;;;5045727;28;20571;-83
2023/06/11 01:38:41;;;;;;;10.40;8.23;;;15.70;99.90;;;;;;5040004;28;20459;-82
2023/06/11 01:41:09;;;;;;;11.83;10.83;;;15.70;99.90;;;;;;5043121;28;20508;-82
2023/06/11 01:43:36;;;;;;;12.30;9.60;;;15.80;99.90;;;;;;5039417;28;20532;-83
2023/06/11 01:46:05;;;;;;;11.47;10.37;;;15.80;99.90;;;;;;5044916;28;21004;-82
2023/06/11 01:48:32;;;;;;;11.80;10.67;;;15.80;99.90;;;;;;5046043;28;20477;-82
2023/06/11 01:50:59;;;;;;;12.17;10.37;;;15.80;99.90;;;;;;5044855;28;20499;-82
2023/06/11 01:53:25;;;;;;;11.60;10.50;;;15.90;99.90;;;;;;5046517;28;20519;-86
2023/06/11 01:55:54;;;;;;;15.07;11.70;;;15.80;99.90;;;;;;5040183;28;20494;-83
2023/06/11 01:58:21;;;;;;;12.90;11.17;;;15.80;99.90;;;;;;5044219;28;20587;-82
2023/06/11 02:00:49;;;;;;;12.80;11.57;;;15.80;99.90;;;;;;5045974;28;20520;-85
2023/06/11 02:03:17;;;;;;;13.23;11.90;;;15.90;99.90;;;;;;5049249;28;20477;-83
2023/06/11 02:05:44;;;;;;;11.57;10.60;;;15.90;99.90;;;;;;5047260;28;20546;-82
2023/06/11 02:08:11;;;;;;;12.30;11.20;;;15.90;99.90;;;;;;5045840;28;21051;-84
2023/06/11 02:10:38;;;;;;;11.77;10.73;;;15.80;99.90;;;;;;5048720;28;20454;-83
2023/06/11 02:13:05;;;;;;;13.70;12.50;;;15.80;99.90;;;;;;5048249;28;20481;-85
2023/06/11 02:15:32;;;;;;;14.20;12.80;;;15.70;99.90;;;;;;5048680;28;20550;-83
2023/06/11 02:17:59;;;;;;;11.17;10.07;;;15.70;99.90;;;;;;5040839;28;20575;-83
2023/06/11 02:20:27;;;;;;;11.53;10.53;;;15.70;99.90;;;;;;5047677;28;20545;-83
2023/06/11 02:22:54;;;;;;;10.43;9.43;;;15.60;99.90;;;;;;5047512;28;20495;-84
2023/06/11 02:25:21;;;;;;;9.57;8.67;;;15.50;99.90;;;;;;5048915;28;20454;-82
2023/06/11 02:27:49;;;;;;;12.00;10.77;;;15.60;99.90;;;;;;5048136;28;20508;-84
2023/06/11 02:30:16;;;;;;;12.90;11.70;;;15.60;99.90;;;;;;5046944;28;20500;-83
2023/06/11 02:32:45;;;;;;;10.00;9.17;;;15.60;99.90;;;;;;5046773;28;20515;-82
2023/06/11 02:35:12;;;;;;;10.47;9.67;;;15.60;99.90;;;;;;5048636;28;20499;-82
2023/06/11 02:37:40;;;;;;;10.93;9.63;;;15.60;99.90;;;;;;5047762;28;20465;-83
2023/06/11 02:40:08;;;;;;;12.67;9.80;;;15.60;99.90;;;;;;5048972;28;20566;-83
2023/06/11 02:42:35;;;;;;;11.97;10.67;;;15.60;99.90;;;;;;5047319;28;20546;-83
2023/06/11 02:45:02;;;;;;;10.77;9.87;;;15.70;99.90;;;;;;5046567;28;20929;-81
2023/06/11 02:47:29;;;;;;;11.03;10.03;;;15.60;99.90;;;;;;5048732;28;20933;-82
2023/06/11 02:49:56;;;;;;;14.30;11.17;;;15.60;99.90;;;;;;5047776;28;20453;-81
2023/06/11 02:52:23;;;;;;;11.70;10.80;;;15.60;99.90;;;;;;5048367;28;20914;-82
2023/06/11 02:54:51;;;;;;;12.10;11.00;;;15.60;99.90;;;;;;5048272;28;20477;-82
2023/06/11 02:57:18;;;;;;;11.83;10.63;;;15.60;99.90;;;;;;5048652;28;20481;-84
2023/06/11 02:59:45;;;;;;;11.10;10.10;;;15.70;99.90;;;;;;5045333;28;20488;-83
2023/06/11 03:02:12;;;;;;;9.87;8.97;;;15.70;99.90;;;;;;5048636;28;20473;-81
2023/06/11 03:04:39;;;;;;;11.13;9.90;;;15.70;99.90;;;;;;5046759;28;20457;-84
2023/06/11 03:07:06;;;;;;;10.53;9.73;;;15.60;99.90;;;;;;5046944;28;20562;-83
2023/06/11 03:09:33;;;;;;;10.63;9.63;;;15.60;99.90;;;;;;5048609;28;20475;-83
2023/06/11 03:12:01;;;;;;;10.40;9.60;;;15.60;99.90;;;;;;5042554;28;21222;-84
2023/06/11 03:14:28;;;;;;;11.80;8.67;;;15.60;99.90;;;;;;5046463;28;20445;-83
2023/06/11 03:16:55;;;;;;;10.00;9.17;;;15.60;99.90;;;;;;5045131;28;20918;-84
2023/06/11 03:19:22;;;;;;;10.80;9.90;;;15.70;99.90;;;;;;5048457;28;20476;-81
2023/06/11 03:21:49;;;;;;;9.97;8.90;;;15.70;99.90;;;;;;5046602;28;20524;-83
2023/06/11 03:24:15;;;;;;;10.40;9.60;;;15.70;99.90;;;;;;5042030;28;20470;-82
2023/06/11 03:26:42;;;;;;;10.93;10.03;;;15.70;99.90;;;;;;5046690;28;20493;-82
2023/06/11 03:29:11;;;;;;;10.83;8.87;;;15.60;99.90;;;;;;5047601;28;20522;-83
2023/06/11 03:31:40;;;;;;;11.10;10.10;;;15.60;99.90;;;;;;5047102;28;20464;-82
2023/06/11 03:34:07;;;;;;;12.63;9.77;;;15.60;99.90;;;;;;5046049;28;20441;-81
2023/06/11 03:36:34;;;;;;;11.60;9.70;;;15.60;99.90;;;;;;5042152;28;20852;-82
2023/06/11 03:39:01;;;;;;;10.40;9.40;;;15.60;99.90;;;;;;5047180;28;20987;-83
2023/06/11 03:41:28;;;;;;;10.93;9.60;;;15.50;99.90;;;;;;5046181;28;20477;-81
2023/06/11 03:43:55;;;;;;;11.50;10.47;;;15.50;99.90;;;;;;5043396;28;20441;-84
2023/06/11 03:46:23;;;;;;;12.77;11.27;;;15.50;99.90;;;;;;5046191;28;21087;-83
2023/06/11 03:48:50;;;;;;;10.20;9.40;;;15.50;99.90;;;;;;5047671;28;20494;-83
2023/06/11 03:51:17;;;;;;;10.80;9.83;;;15.60;99.90;;;;;;5043472;28;20635;-84
2023/06/11 03:53:44;;;;;;;11.30;10.40;;;15.70;99.90;;;;;;5043677;28;20469;-82
2023/06/11 03:56:11;;;;;;;10.33;9.43;;;15.50;99.90;;;;;;5046322;28;20911;-83
2023/06/11 03:58:38;;;;;;;10.10;9.23;;;15.50;99.90;;;;;;5044926;28;20531;-85
2023/06/11 04:01:05;;;;;;;9.70;9.00;;;15.50;99.90;;;;;;5043326;28;20594;-83
2023/06/11 04:03:33;;;;;;;9.40;8.43;;;15.40;99.90;;;;;;5046017;28;20457;-82
2023/06/11 04:06:00;;;;;;;11.33;10.33;;;15.40;99.90;;;;;;5044036;28;20501;-82
2023/06/11 04:08:27;;;;;;;10.77;9.67;;;15.40;99.90;;;;;;5047602;28;20506;-84
2023/06/11 04:10:54;;;;;;;9.70;8.83;;;15.40;99.90;;;;;;5043789;28;20505;-84
2023/06/11 04:13:21;;;;;;;9.37;8.47;;;15.40;99.90;;;;;;5045066;28;20495;-82
2023/06/11 04:15:48;;;;;;;9.07;8.27;;;15.40;99.90;;;;;;5046978;28;21011;-83
2023/06/11 04:18:15;;;;;;;9.57;8.57;;;15.30;99.90;;;;;;5044920;28;20461;-84
2023/06/11 04:20:43;;;;;;;10.90;9.90;;;15.30;99.90;;;;;;5046180;28;20513;-82
2023/06/11 04:23:10;;;;;;;11.47;10.37;;;15.30;99.90;;;;;;5035303;28;20485;-84
2023/06/11 04:25:39;;;;;;;10.60;9.60;;;15.40;99.90;;;;;;5046599;28;20979;-83
2023/06/11 04:28:07;;;;;;;12.40;11.20;;;15.40;99.90;;;;;;5046981;28;20473;-82
2023/06/11 04:30:34;;;;;;;10.07;9.17;;;15.40;99.90;;;;;;5045755;28;20928;-82
2023/06/11 04:33:03;;;;;;;9.70;8.80;;;15.40;99.90;;;;;;5046700;28;20547;-82
2023/06/11 04:35:34;;;;;;;9.83;8.93;;;15.40;99.90;;;;;;5046986;28;20528;-83
2023/06/11 04:38:04;;;;;;;10.50;9.50;;;15.50;99.90;;;;;;5045616;28;20544;-82
2023/06/11 04:40:33;;;;;;;8.90;8.30;;;15.50;99.90;;;;;;5044618;28;20481;-83
2023/06/11 04:43:00;;;;;;;10.50;8.90;;;15.60;99.90;;;;;;5046810;28;20441;-84
2023/06/11 04:45:28;;;;;;;10.23;9.40;;;15.60;99.90;;;;;;5045425;28;20826;-82
2023/06/11 04:47:55;;;;;;;8.10;7.50;;;15.40;99.90;;;;;;5045893;28;20449;-82
2023/06/11 04:50:22;;;;;;;10.30;8.10;;;15.30;99.90;;;;;;5047050;28;20477;-82
2023/06/11 04:52:51;;;;;;;9.60;8.80;;;15.50;99.90;;;;;;5040297;28;20540;-84
2023/06/11 04:55:21;;;;;;;9.03;8.33;;;15.60;99.90;;;;;;5046544;28;20537;-81
2023/06/11 04:57:49;;;;;;;9.33;8.63;;;15.70;99.90;;;;;;5044631;28;20990;-83
2023/06/11 05:00:17;;;;;;;8.17;7.47;;;15.70;99.90;;;;;;5044855;28;20539;-84
2023/06/11 05:02:44;;;;;;;7.73;7.03;;;15.80;99.90;;;;;;5046245;28;20457;-83
2023/06/11 05:05:11;;;;;;;8.40;7.70;;;15.90;99.90;;;;;;5035836;28;20475;-83
2023/06/11 05:07:39;;;;;;;7.67;7.00;;;15.90;99.90;;;;;;5045095;28;20493;-83
2023/06/11 05:10:07;;;;;;;8.57;7.77;;;15.90;99.90;;;;;;5046732;28;20779;-83
2023/06/11 05:12:36;;;;;;;7.67;7.07;;;16.10;99.90;;;;;;5045481;28;20851;-82
2023/06/11 05:15:03;;;;;;;7.40;6.80;;;16.20;99.90;;;;;;5045905;28;20487;-85
2023/06/11 05:17:30;;;;;;;6.60;6.10;;;16.40;99.90;;;;;;5045333;28;20546;-84
2023/06/11 05:19:57;;;;;;;8.67;7.03;;;16.40;99.90;;;;;;5045367;28;20449;-82
2023/06/11 05:22:24;;;;;;;5.70;5.40;;;16.40;99.90;;;;;;5041224;28;20574;-83
2023/06/11 05:24:52;;;;;;;6.17;5.67;;;16.50;99.90;;;;;;5042380;28;20438;-81
2023/06/11 05:27:20;;;;;;;6.87;6.27;;;16.80;99.90;;;;;;5043533;28;20439;-82
2023/06/11 05:29:48;;;;;;;6.07;5.57;;;16.70;99.90;;;;;;5038362;28;21167;-82
2023/06/11 05:32:15;;;;;;;6.83;5.90;;;16.80;99.90;;;;;;5043649;28;20965;-85
2023/06/11 05:34:43;;;;;;;5.93;5.53;;;16.80;99.90;;;;;;5045186;28;20440;-82
2023/06/11 05:37:10;;;;;;;6.97;6.47;;;16.80;99.90;;;;;;5048552;28;20907;-83
2023/06/11 05:39:37;;;;;;;7.07;6.37;;;16.80;99.90;;;;;;5040123;28;20465;-82
2023/06/11 05:42:04;;;;;;;5.80;5.40;;;16.80;99.90;;;;;;5050440;28;20566;-85
2023/06/11 05:44:31;;;;;;;6.50;6.10;;;16.70;99.90;;;;;;5048524;28;20932;-84
2023/06/11 05:46:59;;;;;;;7.37;6.73;;;16.80;99.90;;;;;;5050031;28;20469;-81
2023/06/11 05:49:26;;;;;;;7.07;6.37;;;16.70;99.90;;;;;;5049138;28;20485;-93
2023/06/11 05:51:53;;;;;;;7.10;6.50;;;16.80;99.90;;;;;;5048418;28;20488;-84
2023/06/11 05:54:20;;;;;;;7.23;6.63;;;16.80;99.90;;;;;;5048961;28;20473;-82
2023/06/11 05:56:47;;;;;;;6.00;5.57;;;16.90;99.90;;;;;;5048622;28;20510;-83
2023/06/11 05:59:14;;;;;;;7.10;6.50;;;17.10;99.90;;;;;;5043321;28;20509;-83
2023/06/11 06:01:44;;;;;;;6.30;5.83;;;17.00;99.90;;;;;;5038768;28;20482;-81
2023/06/11 06:04:13;;;;;;;8.03;7.30;;;17.20;99.90;;;;;;5048422;28;20446;-82
2023/06/11 06:06:40;;;;;;;6.47;5.87;;;17.20;99.90;;;;;;5048716;28;20446;-82
2023/06/11 06:09:07;;;;;;;6.70;6.07;;;17.20;99.90;;;;;;5047935;28;20442;-83
2023/06/11 06:11:34;;;;;;;7.17;6.47;;;17.50;99.90;;;;;;5043860;28;20490;-82
2023/06/11 06:14:02;;;;;;;6.67;6.17;;;17.70;99.90;;;;;;5048292;28;20441;-82
2023/06/11 06:16:30;;;;;;;6.60;5.97;;;17.80;99.90;;;;;;5047781;28;20447;-81
2023/06/11 06:18:57;;;;;;;7.20;6.50;;;17.90;99.90;;;;;;5041664;28;20451;-84
2023/06/11 06:21:25;;;;;;;8.30;7.53;;;18.00;99.90;;;;;;5048178;28;20517;-80
2023/06/11 06:23:52;;;;;;;5.57;5.17;;;17.90;99.90;;;;;;5046692;28;20473;-82
2023/06/11 06:26:19;;;;;;;5.77;5.37;;;17.90;99.90;;;;;;5047001;28;20438;-82
2023/06/11 06:28:46;;;;;;;6.57;5.90;;;17.80;99.90;;;;;;5048331;28;20448;-82
2023/06/11 06:31:14;;;;;;;5.70;5.20;;;17.90;99.90;;;;;;5048795;28;20497;-82
2023/06/11 06:33:40;;;;;;;5.33;4.97;;;17.90;99.90;;;;;;5046851;28;20473;-82
2023/06/11 06:36:07;;;;;;;5.63;5.23;;;17.90;99.90;;;;;;5048821;28;20532;-81
2023/06/11 06:38:36;;;;;;;5.80;5.40;;;17.90;99.90;;;;;;5059263;28;20503;-84
2023/06/11 06:41:03;;;;;;;6.70;5.33;;;17.90;99.90;;;;;;5046967;28;20565;-82
2023/06/11 06:43:30;;;;;;;6.70;6.10;;;18.10;99.90;;;;;;5044924;28;20444;-83
2023/06/11 06:45:57;;;;;;;5.70;5.30;;;18.10;99.90;;;;;;5046741;28;20786;-81
2023/06/11 06:48:25;;;;;;;5.27;4.87;;;18.20;99.90;;;;;;5047733;28;20473;-81
2023/06/11 06:50:52;;;;;;;7.57;5.67;;;18.30;99.90;;;;;;5044598;28;20442;-82
2023/06/11 06:53:18;;;;;;;4.73;4.43;;;18.40;99.90;;;;;;5045419;28;20556;-82
2023/06/11 06:55:48;;;;;;;5.03;4.73;;;18.50;99.90;;;;;;5048421;28;20475;-82
2023/06/11 06:58:15;;;;;;;5.87;4.77;;;18.70;99.90;;;;;;5047379;28;21018;-83
2023/06/11 07:00:42;;;;;;;5.20;4.80;;;18.30;99.90;;;;;;5048414;28;21304;-81
2023/06/11 07:03:12;;;;;;;5.37;4.97;;;18.50;99.90;;;;;;5046777;28;20475;-82
2023/06/11 07:05:38;;;;;;;5.60;5.20;;;18.40;99.90;;;;;;5046838;28;20455;-82
2023/06/11 07:08:05;;;;;;;6.13;5.63;;;18.60;99.90;;;;;;5045735;28;20473;-82
2023/06/11 07:10:32;;;;;;;5.90;5.40;;;18.80;99.90;;;;;;5047725;28;20461;-81
2023/06/11 07:13:01;;;;;;;5.40;4.73;;;19.20;99.90;;;;;;5048128;28;20471;-83
2023/06/11 07:15:28;;;;;;;5.27;4.83;;;19.50;99.90;;;;;;5043434;28;21232;-81
2023/06/11 07:17:55;;;;;;;4.60;4.20;;;19.60;99.90;;;;;;5048342;28;20547;-82
2023/06/11 07:20:22;;;;;;;5.33;4.93;;;19.40;99.90;;;;;;5048481;28;20445;-81
2023/06/11 07:22:48;;;;;;;6.27;5.67;;;19.70;99.90;;;;;;5045577;28;20554;-82
2023/06/11 07:25:16;;;;;;;5.17;4.77;;;19.50;99.90;;;;;;5046427;28;20485;-82
2023/06/11 07:27:43;;;;;;;4.93;4.63;;;20.10;99.90;;;;;;5044309;28;20486;-82
2023/06/11 07:30:13;;;;;;;4.83;4.53;;;19.90;99.90;;;;;;5047244;28;20464;-82
2023/06/11 07:32:40;;;;;;;6.07;4.40;;;20.30;99.90;;;;;;5044541;28;20500;-82
2023/06/11 07:35:07;;;;;;;4.73;4.40;;;20.50;99.90;;;;;;5035993;28;20572;-81
2023/06/11 07:37:35;;;;;;;4.67;4.27;;;20.70;99.90;;;;;;5040303;28;20563;-83
2023/06/11 07:40:04;;;;;;;4.60;4.30;;;21.10;99.90;;;;;;5040602;28;20453;-83
2023/06/11 07:42:30;;;;;;;4.87;4.37;;;20.80;99.90;;;;;;5047948;28;20515;-83
2023/06/11 07:44:57;;;;;;;7.50;4.33;;;21.00;99.90;;;;;;5045080;28;20989;-82
2023/06/11 07:47:26;;;;;;;6.70;5.13;;;20.90;99.90;;;;;;5048378;28;20477;-82
2023/06/11 07:49:53;;;;;;;4.77;4.30;;;20.80;99.90;;;;;;5045915;28;20500;-82
2023/06/11 07:52:20;;;;;;;3.90;3.67;;;20.70;99.90;;;;;;5044582;28;20520;-82
2023/06/11 07:54:47;;;;;;;6.77;6.37;;;20.50;99.90;;;;;;5037973;28;20492;-82
2023/06/11 07:57:15;;;;;;;5.27;4.87;;;20.90;99.90;;;;;;5043486;28;20489;-82
2023/06/11 07:59:43;;;;;;;4.87;4.57;;;20.30;99.90;;;;;;5038856;28;20480;-82
2023/06/11 08:02:11;;;;;;;5.33;4.90;;;19.90;99.90;;;;;;5043773;28;20480;-82
2023/06/11 08:04:39;;;;;;;3.33;3.20;;;19.80;99.90;;;;;;5045268;28;20460;-82
2023/06/11 08:07:07;;;;;;;4.20;3.90;;;20.10;99.90;;;;;;5043691;28;20488;-82
2023/06/11 08:09:35;;;;;;;4.33;4.13;;;19.80;99.90;;;;;;5046993;28;20429;-82
2023/06/11 08:12:02;;;;;;;4.60;4.30;;;20.20;99.90;;;;;;5042206;28;20476;-82
2023/06/11 08:14:29;;;;;;;3.90;3.67;;;20.50;99.90;;;;;;5047428;28;20465;-82
2023/06/11 08:16:56;;;;;;;5.20;3.93;;;20.80;99.90;;;;;;5036240;28;20530;-82
2023/06/11 08:19:23;;;;;;;3.67;3.47;;;20.80;99.90;;;;;;5045800;28;20481;-82
2023/06/11 08:21:52;;;;;;;4.30;3.90;;;21.00;99.90;;;;;;5044591;28;20838;-81
2023/06/11 08:24:21;;;;;;;4.20;3.90;;;20.90;99.90;;;;;;5045650;28;20437;-82
2023/06/11 08:26:48;;;;;;;3.60;3.40;;;21.10;99.90;;;;;;5042952;28;20457;-82
2023/06/11 08:29:15;;;;;;;4.20;3.90;;;20.70;99.90;;;;;;5039574;28;20494;-81
2023/06/11 08:31:42;;;;;;;3.40;3.20;;;20.40;99.90;;;;;;5045172;28;20488;-81
2023/06/11 08:34:09;;;;;;;4.60;4.30;;;20.40;99.90;;;;;;5045752;28;20494;-83
2023/06/11 08:36:37;;;;;;;4.80;4.50;;;20.50;99.90;;;;;;5044579;28;20456;-83
2023/06/11 08:39:05;;;;;;;3.90;3.60;;;20.80;99.90;;;;;;5046742;28;20912;-82
2023/06/11 08:41:32;;;;;;;4.80;4.43;;;21.10;99.90;;;;;;5044155;28;20570;-82
2023/06/11 08:43:59;;;;;;;4.83;4.53;;;21.00;99.90;;;;;;5045650;28;20442;-82
2023/06/11 08:46:26;;;;;;;3.53;3.33;;;20.80;99.90;;;;;;5046856;28;20565;-82
2023/06/11 08:48:59;;;;;;;5.50;5.03;;;20.80;99.90;;;;;;5044610;28;20500;-82
2023/06/11 08:51:28;;;;;;;4.87;4.53;;;20.50;99.90;;;;;;5038109;28;21139;-81
2023/06/11 08:53:55;;;;;;;4.57;4.27;;;20.50;99.90;;;;;;5045989;28;20438;-82
2023/06/11 08:56:24;;;;;;;4.80;4.40;;;20.60;99.90;;;;;;5046839;28;20480;-82
2023/06/11 08:58:53;;;;;;;4.20;4.00;;;20.60;99.90;;;;;;5039257;28;20513;-82
2023/06/11 09:01:22;;;;;;;4.63;4.33;;;21.00;99.90;;;;;;5045931;28;20472;-82
2023/06/11 09:03:49;;;;;;;4.60;4.30;;;21.10;99.90;;;;;;5042709;28;20958;-82
2023/06/11 09:06:16;;;;;;;4.97;4.57;;;21.00;99.90;;;;;;5046456;28;20457;-82
2023/06/11 09:08:43;;;;;;;4.80;4.03;;;20.40;99.90;;;;;;5035797;28;20469;-82
2023/06/11 09:11:10;;;;;;;4.10;3.80;;;20.10;99.90;;;;;;5047093;28;20457;-82
2023/06/11 09:13:42;;;;;;;4.50;4.10;;;19.90;99.90;;;;;;5039456;28;20500;-82
2023/06/11 09:16:08;;;;;;;3.83;3.60;;;20.20;99.90;;;;;;5044873;28;20838;-82
2023/06/11 09:18:35;;;;;;;4.77;4.37;;;20.50;99.90;;;;;;5043418;28;20501;-82
2023/06/11 09:21:02;;;;;;;3.93;3.67;;;20.60;99.90;;;;;;5045938;28;20610;-82
2023/06/11 09:23:31;;;;;;;4.33;4.03;;;20.40;99.90;;;;;;5050245;28;20507;-82
2023/06/11 09:25:58;;;;;;;7.00;4.57;;;20.60;99.90;;;;;;5048939;28;20472;-82
2023/06/11 09:28:30;;;;;;;4.80;4.50;;;20.90;99.90;;;;;;5046648;28;20453;-82
2023/06/11 09:31:00;;;;;;;4.20;3.90;;;21.00;99.90;;;;;;5049505;28;20452;-82
2023/06/11 09:33:28;;;;;;;7.17;4.07;;;21.20;99.90;;;;;;5049638;28;20446;-82
2023/06/11 09:35:55;;;;;;;4.77;4.50;;;21.40;99.90;;;;;;5041541;28;20508;-82
2023/06/11 09:38:22;;;;;;;3.80;3.60;;;22.00;99.90;;;;;;5049245;28;20917;-80
2023/06/11 09:40:51;;;;;;;4.80;4.50;;;22.60;99.90;;;;;;5049397;28;20497;-80
2023/06/11 09:43:20;;;;;;;3.97;3.77;;;23.20;99.90;;;;;;5049326;28;20527;-80
2023/06/11 09:45:52;;;;;;;4.00;3.70;;;23.70;99.90;;;;;;5035289;28;20465;-79
2023/06/11 09:48:21;;;;;;;3.60;3.40;;;23.40;99.90;;;;;;5049345;28;20506;-80
2023/06/11 09:50:50;;;;;;;5.07;4.23;;;23.00;97.40;;;;;;5043869;28;20522;-79
2023/06/11 09:53:18;;;;;;;5.37;5.00;;;23.30;98.70;;;;;;5041710;28;20444;-80
2023/06/11 09:55:48;;;;;;;5.00;4.37;;;23.40;97.80;;;;;;5049869;28;20477;-80
2023/06/11 09:58:21;;;;;;;3.20;3.00;;;23.30;97.10;;;;;;5041845;28;20820;-80
2023/06/11 10:00:49;;;;;;;3.50;3.20;;;23.30;96.80;;;;;;5041689;28;20458;-80
2023/06/11 10:03:16;;;;;;;3.40;3.20;;;23.00;98.50;;;;;;5046346;28;20513;-80
2023/06/11 10:05:45;;;;;;;3.77;3.57;;;23.00;98.10;;;;;;5049425;28;21012;-79
2023/06/11 10:08:15;;;;;;;4.20;3.90;;;22.60;96.00;;;;;;5037950;28;20512;-80
2023/06/11 10:10:45;;;;;;;3.23;3.03;;;22.90;99.10;;;;;;5049274;28;20433;-80
2023/06/11 10:13:13;;;;;;;4.50;4.20;;;23.40;97.20;;;;;;5050080;28;20441;-82
2023/06/11 10:15:40;;;;;;;4.07;3.40;;;23.80;97.10;;;;;;5046149;28;20485;-82
2023/06/11 10:18:14;;;;;;;3.73;3.43;;;23.90;96.60;;;;;;5047223;28;20465;-82
2023/06/11 10:20:54;;;;;;;3.20;2.93;;;24.00;96.80;;;;;;5050041;28;21162;-80
2023/06/11 10:23:21;;;;;;;8.67;3.50;;;23.30;96.50;;;;;;5046545;28;20513;-80
2023/06/11 10:25:54;;;;;;;3.70;3.50;;;23.50;97.20;;;;;;5036814;28;20773;-79
2023/06/11 10:28:22;;;;;;;3.17;3.07;;;24.00;97.90;;;;;;5044288;28;20446;-79
2023/06/11 10:30:53;;;;;;;3.03;2.83;;;24.20;98.20;;;;;;5043598;28;20485;-80
2023/06/11 10:33:20;;;;;;;3.30;3.10;;;24.30;96.70;;;;;;5047427;28;20568;-79
2023/06/11 10:35:48;;;;;;;3.30;2.67;;;24.40;94.00;;;;;;5041778;28;20451;-80
2023/06/11 10:38:16;;;;;;;3.00;2.77;;;24.10;95.00;;;;;;5048844;28;20482;-80
2023/06/11 10:40:45;;;;;;;4.83;4.53;;;23.70;97.70;;;;;;5047738;28;20455;-80
2023/06/11 10:43:17;;;;;;;4.10;3.90;;;23.60;98.20;;;;;;5037711;28;20944;-80
2023/06/11 10:45:44;;;;;;;4.10;3.80;;;23.80;97.80;;;;;;5048862;28;20446;-79
2023/06/11 10:48:12;;;;;;;4.93;4.63;;;23.90;97.00;;;;;;5047276;28;20924;-80
2023/06/11 10:50:39;;;;;;;4.37;3.63;;;23.70;98.30;;;;;;5047194;28;20454;-79
2023/06/11 10:53:13;;;;;;;6.27;5.67;;;23.50;99.30;;;;;;5046920;28;20537;-79
2023/06/11 10:55:47;;;;;;;5.77;5.17;;;23.50;97.20;;;;;;5044348;28;20627;-79
2023/06/11 10:58:22;;;;;;;4.57;4.27;;;23.60;97.90;;;;;;5046904;28;20468;-80
2023/06/11 11:00:53;;;;;;;4.10;3.80;;;23.50;97.80;;;;;;5043630;28;20455;-79
2023/06/11 11:03:21;;;;;;;5.07;4.77;;;23.70;98.30;;;;;;5048074;28;20477;-79
2023/06/11 11:05:50;;;;;;;3.57;3.37;;;23.70;96.60;;;;;;5048000;28;20445;-80
2023/06/11 11:08:17;;;;;;;3.60;3.40;;;24.00;98.80;;;;;;5047421;28;20489;-80
2023/06/11 11:10:45;;;;;;;3.70;3.50;;;23.80;99.40;;;;;;5047717;28;20453;-79
2023/06/11 11:13:12;;;;;;;3.37;3.17;;;23.60;97.20;;;;;;5047918;28;20453;-80
2023/06/11 11:15:42;;;;;;;3.30;3.03;;;23.40;97.00;;;;;;5043838;28;20470;-79
2023/06/11 11:18:09;;;;;;;3.10;2.90;;;23.50;97.70;;;;;;5045727;28;20445;-79
2023/06/11 11:20:36;;;;;;;3.70;3.50;;;23.40;96.50;;;;;;5047759;28;20524;-79
2023/06/11 11:23:04;;;;;;;2.83;2.70;;;23.40;97.20;;;;;;5048182;28;20574;-80
2023/06/11 11:25:32;;;;;;;3.20;3.00;;;23.60;98.40;;;;;;5047275;28;20465;-79
2023/06/11 11:28:00;;;;;;;2.90;2.70;;;23.30;96.50;;;;;;5047322;28;20539;-79
2023/06/11 11:30:28;;;;;;;2.67;2.47;;;23.40;98.30;;;;;;5048401;28;20473;-79
2023/06/11 11:32:56;;;;;;;3.47;3.20;;;23.50;97.10;;;;;;5044988;28;20493;-80
2023/06/11 11:35:25;;;;;;;4.47;2.90;;;23.60;96.30;;;;;;5045636;28;20477;-79
2023/06/11 11:37:52;;;;;;;2.87;2.77;;;23.30;95.90;;;;;;5041269;28;20798;-79
2023/06/11 11:40:20;;;;;;;3.17;2.97;;;23.20;96.20;;;;;;5039258;28;20482;-79
2023/06/11 11:42:49;;;;;;;2.77;2.57;;;23.20;98.60;;;;;;5047284;28;20484;-79
2023/06/11 11:45:18;;;;;;;2.90;2.43;;;23.60;98.90;;;;;;5043049;28;20465;-79
2023/06/11 11:47:46;;;;;;;3.10;2.90;;;24.00;98.30;;;;;;5043376;28;20551;-79
2023/06/11 11:50:22;;;;;;;2.90;2.70;;;24.40;95.30;;;;;;5045675;28;20457;-80
2023/06/11 11:53:03;;;;;;;2.63;2.43;;;24.10;95.70;;;;;;5047232;28;20445;-79
2023/06/11 11:55:32;;;;;;;2.97;2.77;;;23.90;96.30;;;;;;5038820;28;20445;-79
2023/06/11 11:58:07;;;;;;;3.47;2.43;;;23.90;95.60;;;;;;5046479;28;20506;-79
2023/06/11 12:00:37;;;;;;;3.00;2.80;;;23.60;94.70;;;;;;5046279;28;20465;-79
2023/06/11 12:03:09;;;;;;;3.17;2.87;;;23.60;95.40;;;;;;5044674;28;20480;-80
2023/06/11 12:05:36;;;;;;;2.63;2.43;;;24.00;94.90;;;;;;5045131;28;20465;-80
2023/06/11 12:08:03;;;;;;;3.30;3.10;;;24.20;95.80;;;;;;5047443;28;20478;-79
2023/06/11 12:10:30;;;;;;;3.20;3.00;;;24.50;95.50;;;;;;5044252;28;20463;-79
2023/06/11 12:12:58;;;;;;;2.40;2.30;;;24.90;93.70;;;;;;5043705;28;20910;-80
2023/06/11 12:15:25;;;;;;;3.47;2.20;;;25.00;92.20;;;;;;5047493;28;20448;-83
2023/06/11 12:17:53;;;;;;;3.33;1.80;;;25.00;91.50;;;;;;5043363;28;20497;-80
2023/06/11 12:20:21;;;;;;;4.00;3.70;;;23.90;89.90;;;;;;5046055;28;20475;-80
2023/06/11 12:22:48;;;;;;;2.97;2.73;;;23.90;95.90;;;;;;5043137;28;20484;-79
2023/06/11 12:25:15;;;;;;;2.10;1.90;;;24.40;96.60;;;;;;5045241;28;20875;-79
2023/06/11 12:27:43;;;;;;;2.77;2.57;;;24.80;92.90;;;;;;5040091;28;20902;-79
2023/06/11 12:30:11;;;;;;;2.67;2.57;;;24.60;93.00;;;;;;5043004;28;20465;-73
2023/06/11 12:32:39;;;;;;;3.90;2.10;;;24.80;92.90;;;;;;5045398;28;20474;-82
2023/06/11 12:35:08;;;;;;;4.57;2.30;;;24.70;91.10;;;;;;5045742;28;20469;-77
2023/06/11 12:37:36;;;;;;;1.83;1.73;;;24.50;93.40;;;;;;5045318;28;20483;-82
2023/06/11 12:40:04;;;;;;;2.30;2.20;;;24.80;90.90;;;;;;5038440;28;20460;-82
2023/06/11 12:42:32;;;;;;;2.90;2.70;;;24.90;91.40;;;;;;5046170;28;20439;-77
2023/06/11 12:44:59;;;;;;;2.70;2.50;;;24.90;92.40;;;;;;5046082;28;20463;-77
2023/06/11 12:47:26;;;;;;;2.20;2.10;;;25.20;91.70;;;;;;5043645;28;20467;-77